Aviation Digital Data Service (ADDS)

Output produced by METARs form (2301 UTC 14 February 2016)
found at http://aviationweather.gov/adds/metars/
 
KBVI 141727Z 1418/1518 14004KT P6SM BKN250 
     FM150100 09005KT P6SM BKN100 
     FM150700 15009KT 5SM -SN OVC015 
     FM151500 16012KT P6SM OVC015